Time;durP1;ratioP1;P1;durP2;ratioP2;P2;SDS_P1;SDS_P2;PMS_P1;PMS_P2;Temp;Humidity;BMP_temperature;BMP_pressure;BME280_temperature;BME280_humidity;BME280_pressure;Samples;Min_cycle;Max_cycle;Signal;HPM_P1;HPM_P2
2021/08/04 00:01:52;;;;;;;4.53;2.03;;;;;;;16.85;nan;101437.19;6215984;23;20004;-92
2021/08/04 00:04:18;;;;;;;4.95;1.88;;;;;;;16.82;nan;101441.28;6241710;22;20011;-92
2021/08/04 00:06:43;;;;;;;4.75;2.28;;;;;;;16.86;nan;101441.53;6241880;23;20058;-93
2021/08/04 00:09:11;;;;;;;3.63;2.05;;;;;;;16.85;nan;101440.72;6216287;23;20008;-93
2021/08/04 00:11:37;;;;;;;5.07;2.40;;;;;;;16.87;nan;101443.16;6216600;23;20030;-93
2021/08/04 00:14:03;;;;;;;5.47;2.10;;;;;;;16.85;nan;101446.13;6216498;23;20031;-91
2021/08/04 00:16:32;;;;;;;4.93;2.13;;;;;;;16.83;nan;101445.59;6241143;23;20004;-91
2021/08/04 00:18:57;;;;;;;3.83;1.85;;;;;;;16.84;nan;101444.50;6216152;23;20028;-92
2021/08/04 00:21:23;;;;;;;2.92;1.98;;;;;;;16.85;nan;101443.44;6216072;23;20345;-92
2021/08/04 00:23:49;;;;;;;4.10;1.88;;;;;;;16.77;nan;101446.69;6215859;22;20550;-91
2021/08/04 00:26:18;;;;;;;3.42;1.60;;;;;;;16.75;nan;101440.75;6215910;23;20012;-91
2021/08/04 00:28:44;;;;;;;3.30;1.80;;;;;;;16.74;nan;101439.13;6216332;23;20003;-93
2021/08/04 00:31:10;;;;;;;5.57;2.13;;;;;;;16.58;nan;101441.00;6216080;23;20005;-91
2021/08/04 00:33:36;;;;;;;5.20;2.25;;;;;;;16.60;nan;101444.25;6215698;22;20103;-92
2021/08/04 00:36:01;;;;;;;3.75;2.20;;;;;;;16.64;nan;101449.91;6216296;23;20097;-92
2021/08/04 00:38:29;;;;;;;3.70;2.28;;;;;;;16.71;nan;101455.09;6241411;23;20000;-91
2021/08/04 00:40:55;;;;;;;4.03;2.10;;;;;;;16.57;nan;101452.91;6215994;23;20081;-92
2021/08/04 00:43:21;;;;;;;3.50;1.75;;;;;;;16.66;nan;101463.97;6215836;23;20000;-92
2021/08/04 00:45:47;;;;;;;4.15;1.98;;;;;;;16.70;nan;101469.72;6241171;22;20008;-92
2021/08/04 00:48:12;;;;;;;4.55;2.03;;;;;;;16.71;nan;101464.03;6241379;23;20014;-92
2021/08/04 00:50:38;;;;;;;3.53;2.42;;;;;;;16.80;nan;101469.69;6216191;23;20079;-92
2021/08/04 00:53:36;;;;;;;3.88;1.90;;;;;;;16.55;nan;101467.78;6241443;23;20004;-93
2021/08/04 00:56:07;;;;;;;3.97;2.20;;;;;;;16.50;nan;101473.97;6181920;23;20004;-92
2021/08/04 00:58:40;;;;;;;5.63;2.00;;;;;;;16.52;nan;101471.84;6216037;23;20004;-91
2021/08/04 01:01:13;;;;;;;4.07;2.05;;;;;;;16.52;nan;101468.34;6216036;23;20016;-91
2021/08/04 01:03:44;;;;;;;3.40;1.90;;;;;;;16.51;nan;101467.50;6215796;22;20031;-91
2021/08/04 01:06:34;;;;;;;4.55;2.10;;;;;;;16.46;nan;101462.09;6216330;23;20028;-92
2021/08/04 01:08:59;;;;;;;8.13;2.35;;;;;;;16.45;nan;101460.47;6215676;23;20008;-92
2021/08/04 01:11:31;;;;;;;4.85;2.00;;;;;;;16.46;nan;101456.69;6214288;23;20399;-94
2021/08/04 01:14:12;;;;;;;4.82;2.13;;;;;;;16.45;nan;101462.34;6215919;22;20086;-91
2021/08/04 01:16:40;;;;;;;6.00;2.05;;;;;;;16.40;nan;101465.88;6216267;23;20081;-91
2021/08/04 01:19:27;;;;;;;2.63;1.95;;;;;;;16.34;nan;101456.16;6215805;23;20008;-92
2021/08/04 01:22:04;;;;;;;2.67;2.00;;;;;;;16.30;nan;101457.75;6215809;23;20008;-92
2021/08/04 01:24:37;;;;;;;4.10;1.65;;;;;;;16.32;nan;101464.50;6240178;22;20004;-92
2021/08/04 01:27:04;;;;;;;2.30;1.85;;;;;;;16.30;nan;101460.44;6239960;23;20062;-92
2021/08/04 01:29:31;;;;;;;2.83;1.95;;;;;;;16.29;nan;101456.94;6215214;23;20086;-92
2021/08/04 01:32:01;;;;;;;2.17;1.83;;;;;;;16.29;nan;101453.41;6215711;23;20031;-92
2021/08/04 01:34:30;;;;;;;5.03;1.80;;;;;;;16.20;nan;101465.84;6215570;23;20000;-92
2021/08/04 01:36:56;;;;;;;6.68;2.08;;;;;;;16.19;nan;101454.22;6215733;23;20090;-92
2021/08/04 01:39:23;;;;;;;2.63;2.03;;;;;;;16.20;nan;101455.84;6214951;23;20407;-91
2021/08/04 01:41:51;;;;;;;3.50;1.40;;;;;;;16.18;nan;101457.22;6240546;23;20015;-93
2021/08/04 01:44:18;;;;;;;2.63;1.65;;;;;;;16.15;nan;101449.59;6215437;23;20079;-92
2021/08/04 01:46:47;;;;;;;3.35;1.70;;;;;;;16.07;nan;101444.75;6215561;23;20436;-91
2021/08/04 01:49:14;;;;;;;5.90;2.13;;;;;;;16.09;nan;101447.97;6215076;23;20428;-92
2021/08/04 01:51:41;;;;;;;4.45;2.03;;;;;;;16.07;nan;101448.25;6215827;23;20325;-92
2021/08/04 01:54:07;;;;;;;3.92;2.30;;;;;;;16.10;nan;101446.91;6216347;23;20436;-91
2021/08/04 01:56:36;;;;;;;5.28;2.10;;;;;;;16.12;nan;101447.44;6214495;23;20004;-92
2021/08/04 01:59:01;;;;;;;4.57;2.78;;;;;;;16.10;nan;101446.91;6240990;23;20087;-92
2021/08/04 02:01:27;;;;;;;6.00;2.00;;;;;;;16.11;nan;101446.63;6217199;23;20031;-91
2021/08/04 02:03:53;;;;;;;4.65;2.30;;;;;;;16.01;nan;101438.53;6243341;22;20027;-91
2021/08/04 02:06:35;;;;;;;2.92;1.80;;;;;;;15.98;nan;101437.16;6243571;23;20547;-92
2021/08/04 02:09:27;;;;;;;6.45;2.03;;;;;;;15.97;nan;101432.81;6243054;23;20004;-91
2021/08/04 02:12:04;;;;;;;4.20;1.85;;;;;;;16.01;nan;101435.81;6243375;23;20039;-91
2021/08/04 02:14:42;;;;;;;2.53;1.88;;;;;;;16.06;nan;101430.41;6215089;23;20003;-91
2021/08/04 02:17:26;;;;;;;3.65;1.88;;;;;;;15.97;nan;101440.13;6215546;23;20027;-93
2021/08/04 02:20:01;;;;;;;4.57;1.63;;;;;;;15.95;nan;101434.97;6214795;23;20011;-92
2021/08/04 02:22:27;;;;;;;3.63;1.90;;;;;;;15.99;nan;101432.56;6240056;23;20325;-93
2021/08/04 02:25:02;;;;;;;2.90;1.73;;;;;;;16.01;nan;101431.22;6214999;23;20073;-92
2021/08/04 02:27:29;;;;;;;2.80;1.95;;;;;;;15.93;nan;101433.63;6214978;23;20015;-92
2021/08/04 02:29:58;;;;;;;4.28;2.15;;;;;;;16.01;nan;101427.72;6214228;23;20003;-93
2021/08/04 02:32:24;;;;;;;3.60;2.17;;;;;;;16.05;nan;101425.28;6214973;23;20054;-92
2021/08/04 02:34:49;;;;;;;5.00;2.10;;;;;;;16.07;nan;101429.34;6240489;22;20088;-92
2021/08/04 02:37:15;;;;;;;5.20;2.47;;;;;;;16.05;nan;101422.56;6214550;23;20035;-92
2021/08/04 02:39:40;;;;;;;4.18;2.00;;;;;;;16.05;nan;101431.50;6214832;23;20023;-92
2021/08/04 02:42:06;;;;;;;3.35;2.42;;;;;;;16.06;nan;101427.72;6216941;23;20035;-92
2021/08/04 02:44:32;;;;;;;5.07;2.20;;;;;;;16.04;nan;101429.06;6217334;23;20079;-92
2021/08/04 02:46:58;;;;;;;3.05;2.30;;;;;;;16.02;nan;101430.16;6216976;23;20004;-92
2021/08/04 02:49:24;;;;;;;4.05;2.55;;;;;;;16.01;nan;101428.53;6217003;23;20452;-93
2021/08/04 02:51:50;;;;;;;8.13;2.20;;;;;;;16.02;nan;101432.03;6217344;23;20004;-92
2021/08/04 02:54:19;;;;;;;2.85;2.13;;;;;;;16.00;nan;101428.78;6217159;23;20344;-92
2021/08/04 02:56:46;;;;;;;5.35;2.33;;;;;;;16.04;nan;101435.28;6216091;23;20595;-92
2021/08/04 02:59:11;;;;;;;3.75;2.30;;;;;;;16.01;nan;101431.22;6216748;23;20065;-92
2021/08/04 03:01:37;;;;;;;3.63;2.03;;;;;;;16.02;nan;101426.63;6216909;23;20368;-92
2021/08/04 03:04:02;;;;;;;5.20;2.30;;;;;;;16.06;nan;101432.31;6242201;22;20004;-92
2021/08/04 03:06:28;;;;;;;4.32;2.35;;;;;;;16.09;nan;101437.16;6217295;23;20007;-91
2021/08/04 03:08:54;;;;;;;4.22;2.20;;;;;;;16.07;nan;101439.34;6216304;23;20379;-92
2021/08/04 03:11:19;;;;;;;5.57;2.58;;;;;;;16.06;nan;101432.31;6216641;23;20425;-93
2021/08/04 03:13:45;;;;;;;4.18;2.30;;;;;;;16.07;nan;101434.75;6242196;22;20058;-91
2021/08/04 03:16:10;;;;;;;3.35;2.13;;;;;;;16.05;nan;101436.09;6216474;23;20000;-92
2021/08/04 03:18:36;;;;;;;5.70;2.47;;;;;;;16.03;nan;101433.66;6216888;23;20421;-91
2021/08/04 03:21:02;;;;;;;2.92;1.90;;;;;;;15.99;nan;101432.56;6216617;23;20000;-91
2021/08/04 03:23:27;;;;;;;4.22;2.50;;;;;;;16.04;nan;101434.47;6241519;23;20008;-94
2021/08/04 03:25:53;;;;;;;3.38;1.80;;;;;;;16.06;nan;101433.13;6241752;22;20008;-92
2021/08/04 03:28:18;;;;;;;6.30;2.20;;;;;;;16.08;nan;101430.94;6216776;23;20008;-92
2021/08/04 03:30:44;;;;;;;3.75;2.40;;;;;;;16.07;nan;101433.94;6216414;23;20035;-91
2021/08/04 03:33:10;;;;;;;2.55;2.13;;;;;;;16.07;nan;101431.22;6216893;23;20008;-92
2021/08/04 03:35:35;;;;;;;5.18;2.05;;;;;;;16.04;nan;101432.56;6216454;23;20019;-92
2021/08/04 03:38:01;;;;;;;2.90;1.90;;;;;;;16.05;nan;101433.38;6216606;23;20030;-92
2021/08/04 03:40:26;;;;;;;2.67;1.80;;;;;;;16.06;nan;101437.72;6241869;23;20062;-92
2021/08/04 03:42:52;;;;;;;5.85;1.90;;;;;;;16.07;nan;101440.16;6215611;23;20479;-91
2021/08/04 03:45:18;;;;;;;3.13;1.98;;;;;;;15.95;nan;101432.28;6216788;23;20053;-91
2021/08/04 03:47:46;;;;;;;2.90;1.90;;;;;;;15.99;nan;101438.78;6215961;23;20006;-92
2021/08/04 03:50:12;;;;;;;3.42;2.45;;;;;;;16.00;nan;101436.91;6216544;23;20008;-91
2021/08/04 03:52:42;;;;;;;3.28;1.75;;;;;;;16.03;nan;101439.06;6240756;23;20079;-93
2021/08/04 03:55:08;;;;;;;2.33;2.05;;;;;;;16.01;nan;101439.34;6215174;23;20062;-92
2021/08/04 03:57:33;;;;;;;3.85;2.22;;;;;;;16.06;nan;101438.53;6215772;23;20053;-92
2021/08/04 03:59:59;;;;;;;2.78;2.00;;;;;;;16.09;nan;101447.97;6216341;23;20023;-91
2021/08/04 04:02:24;;;;;;;4.80;2.28;;;;;;;16.08;nan;101447.16;6216190;23;20451;-92
2021/08/04 04:04:50;;;;;;;2.75;1.98;;;;;;;16.08;nan;101451.78;6216302;23;20000;-92
2021/08/04 04:07:16;;;;;;;4.70;2.67;;;;;;;16.06;nan;101453.94;6216148;23;20015;-92
2021/08/04 04:09:42;;;;;;;3.00;2.30;;;;;;;16.04;nan;101453.38;6240828;23;20015;-91
2021/08/04 04:12:08;;;;;;;3.05;2.28;;;;;;;16.07;nan;101450.16;6241364;23;20004;-91
2021/08/04 04:14:34;;;;;;;4.95;2.10;;;;;;;16.09;nan;101456.09;6215879;23;20310;-92
2021/08/04 04:16:59;;;;;;;3.58;2.20;;;;;;;16.10;nan;101455.00;6216238;23;20062;-92
2021/08/04 04:19:25;;;;;;;3.90;2.40;;;;;;;16.10;nan;101446.91;6216511;23;20012;-92
2021/08/04 04:21:50;;;;;;;7.45;2.28;;;;;;;16.10;nan;101455.00;6217451;23;20222;-91
2021/08/04 04:24:16;;;;;;;2.72;2.05;;;;;;;16.11;nan;101456.63;6216140;23;20155;-92
2021/08/04 04:26:41;;;;;;;6.80;2.25;;;;;;;16.12;nan;101458.25;6241153;23;20000;-92
2021/08/04 04:29:07;;;;;;;4.43;2.40;;;;;;;16.08;nan;101454.47;6241303;23;20011;-92
2021/08/04 04:31:32;;;;;;;4.53;2.45;;;;;;;16.09;nan;101464.19;6215586;23;20035;-92
2021/08/04 04:33:58;;;;;;;7.18;2.40;;;;;;;16.09;nan;101461.50;6215900;22;20004;-91
2021/08/04 04:36:24;;;;;;;3.60;2.40;;;;;;;16.06;nan;101465.56;6216013;23;20396;-92
2021/08/04 04:38:49;;;;;;;8.85;2.85;;;;;;;16.07;nan;101461.78;6216069;23;20008;-91
2021/08/04 04:41:15;;;;;;;6.57;2.53;;;;;;;16.06;nan;101464.75;6215472;23;20016;-91
2021/08/04 04:43:41;;;;;;;6.93;3.22;;;;;;;15.95;nan;101453.09;6215332;22;20011;-91
2021/08/04 04:46:08;;;;;;;4.75;2.30;;;;;;;15.93;nan;101461.47;6241183;23;20000;-92
2021/08/04 04:48:33;;;;;;;3.28;2.50;;;;;;;15.95;nan;101463.91;6240443;23;20014;-92
2021/08/04 04:50:59;;;;;;;5.07;2.40;;;;;;;15.99;nan;101465.00;6215095;23;20008;-92
2021/08/04 04:53:26;;;;;;;5.10;3.05;;;;;;;16.04;nan;101467.72;6239019;23;20019;-92
2021/08/04 04:55:51;;;;;;;4.68;2.60;;;;;;;15.97;nan;101467.13;6215509;23;20004;-93
2021/08/04 04:58:17;;;;;;;8.00;2.80;;;;;;;15.96;nan;101471.72;6215890;23;20008;-92
2021/08/04 05:00:43;;;;;;;4.50;2.75;;;;;;;16.05;nan;101468.53;6215404;23;20087;-92
2021/08/04 05:03:08;;;;;;;8.50;3.10;;;;;;;15.97;nan;101473.34;6215495;23;20061;-91
2021/08/04 05:05:34;;;;;;;8.43;3.40;;;;;;;15.94;nan;101468.50;6216376;23;20440;-92
2021/08/04 05:08:01;;;;;;;4.55;3.03;;;;;;;15.93;nan;101477.69;6215606;23;20012;-92
2021/08/04 05:10:27;;;;;;;8.18;3.42;;;;;;;15.97;nan;101480.66;6213632;23;20007;-89
2021/08/04 05:12:52;;;;;;;5.95;2.88;;;;;;;16.09;nan;101477.72;6239237;23;20004;-89
2021/08/04 05:15:18;;;;;;;5.32;2.72;;;;;;;16.21;nan;101487.22;6238554;22;20006;-90
2021/08/04 05:17:43;;;;;;;6.28;2.55;;;;;;;16.27;nan;101485.31;6212133;23;20051;-89
2021/08/04 05:20:10;;;;;;;4.20;2.50;;;;;;;16.40;nan;101492.13;6211361;23;20011;-92
2021/08/04 05:22:36;;;;;;;5.60;2.97;;;;;;;16.55;nan;101490.25;6211516;23;20008;-89
2021/08/04 05:25:01;;;;;;;6.93;2.78;;;;;;;16.67;nan;101494.59;6212724;23;20076;-89
2021/08/04 05:27:27;;;;;;;3.92;2.50;;;;;;;16.78;nan;101491.63;6212928;23;20069;-89
2021/08/04 05:29:53;;;;;;;3.47;2.13;;;;;;;16.86;nan;101495.66;6213079;23;20004;-90
2021/08/04 05:32:21;;;;;;;6.47;2.60;;;;;;;16.89;nan;101493.25;6211677;23;20271;-88
2021/08/04 05:34:49;;;;;;;5.57;2.55;;;;;;;16.97;nan;101496.47;6235904;22;20007;-89
2021/08/04 05:37:15;;;;;;;5.35;2.53;;;;;;;17.07;nan;101499.19;6210711;23;20035;-89
2021/08/04 05:39:41;;;;;;;4.00;2.60;;;;;;;17.14;nan;101495.09;6211094;23;20011;-89
2021/08/04 05:42:09;;;;;;;4.25;2.60;;;;;;;17.18;nan;101495.34;6210138;23;20012;-90
2021/08/04 05:44:35;;;;;;;5.53;2.53;;;;;;;17.21;nan;101495.63;6237390;22;20004;-90
2021/08/04 05:47:00;;;;;;;3.63;2.47;;;;;;;17.25;nan;101495.09;6210836;23;20014;-89
2021/08/04 05:49:26;;;;;;;4.00;2.50;;;;;;;17.24;nan;101498.88;6235788;23;20375;-89
2021/08/04 05:51:51;;;;;;;5.18;2.70;;;;;;;17.25;nan;101495.09;6209957;23;20172;-89
2021/08/04 05:54:21;;;;;;;8.77;3.33;;;;;;;17.19;nan;101500.50;6234730;22;20008;-89
2021/08/04 05:56:47;;;;;;;8.00;2.80;;;;;;;17.27;nan;101501.84;6211394;23;20083;-89
2021/08/04 05:59:13;;;;;;;4.78;2.58;;;;;;;17.26;nan;101505.66;6210505;23;20004;-89
2021/08/04 06:01:38;;;;;;;3.33;2.60;;;;;;;17.29;nan;101502.38;6236129;23;20061;-90
2021/08/04 06:04:07;;;;;;;3.90;2.47;;;;;;;17.43;nan;101494.50;6210798;23;20436;-89
2021/08/04 06:06:32;;;;;;;4.43;2.33;;;;;;;17.56;nan;101499.31;6213087;23;20007;-90
2021/08/04 06:08:58;;;;;;;5.88;2.42;;;;;;;17.69;nan;101492.53;6238046;23;20012;-89
2021/08/04 06:11:24;;;;;;;3.50;2.67;;;;;;;17.79;nan;101496.03;6237455;23;20055;-89
2021/08/04 06:13:50;;;;;;;6.40;2.35;;;;;;;17.90;nan;101499.47;6211855;22;20023;-89
2021/08/04 06:16:15;;;;;;;4.18;2.42;;;;;;;18.03;nan;101501.59;6237666;23;20464;-89
2021/08/04 06:18:41;;;;;;;2.72;2.20;;;;;;;18.13;nan;101500.69;6238008;23;20256;-89
2021/08/04 06:21:07;;;;;;;3.95;2.45;;;;;;;18.27;nan;101507.13;6237303;23;20285;-89
2021/08/04 06:23:36;;;;;;;5.85;2.25;;;;;;;18.29;nan;101496.81;6236236;23;20405;-90
2021/08/04 06:26:02;;;;;;;4.68;2.15;;;;;;;18.41;nan;101499.19;6212745;23;20008;-89
2021/08/04 06:28:27;;;;;;;5.43;2.42;;;;;;;18.36;nan;101508.19;6211916;23;20085;-89
2021/08/04 06:30:55;;;;;;;2.55;1.98;;;;;;;18.58;nan;101509.66;6212335;23;20110;-89
2021/08/04 06:33:21;;;;;;;2.80;2.25;;;;;;;18.74;nan;101503.03;6237596;23;20339;-89
2021/08/04 06:35:46;;;;;;;3.03;2.42;;;;;;;18.85;nan;101504.59;6211939;23;20000;-89
2021/08/04 06:38:12;;;;;;;3.20;2.10;;;;;;;18.90;nan;101501.81;6212200;23;20004;-89
2021/08/04 06:40:37;;;;;;;2.55;1.98;;;;;;;18.92;nan;101510.47;6213008;23;20395;-89
2021/08/04 06:43:03;;;;;;;3.33;2.22;;;;;;;18.96;nan;101506.09;6237009;23;20428;-89
2021/08/04 06:45:29;;;;;;;6.07;1.98;;;;;;;19.12;nan;101506.75;6237421;22;20011;-90
2021/08/04 06:47:54;;;;;;;3.65;2.47;;;;;;;19.31;nan;101506.84;6213065;23;20004;-89
2021/08/04 06:50:20;;;;;;;4.35;2.10;;;;;;;19.38;nan;101507.28;6238822;23;20107;-88
2021/08/04 06:52:46;;;;;;;3.72;2.28;;;;;;;19.49;nan;101511.53;6211779;23;20008;-89
2021/08/04 06:55:11;;;;;;;3.60;1.90;;;;;;;19.63;nan;101514.41;6211462;23;20503;-90
2021/08/04 06:57:37;;;;;;;6.60;2.42;;;;;;;19.79;nan;101523.19;6213210;23;20369;-89
2021/08/04 07:00:03;;;;;;;4.05;2.20;;;;;;;19.90;nan;101509.13;6238545;23;20000;-89
2021/08/04 07:02:29;;;;;;;2.85;2.17;;;;;;;19.96;nan;101512.63;6212628;23;20448;-89
2021/08/04 07:04:55;;;;;;;4.47;2.20;;;;;;;20.16;nan;101516.97;6213354;23;20016;-89
2021/08/04 07:07:20;;;;;;;5.55;2.33;;;;;;;20.33;nan;101513.75;6237487;23;20006;-89
2021/08/04 07:09:46;;;;;;;5.72;2.15;;;;;;;20.36;nan;101515.88;6212894;23;20012;-89
2021/08/04 07:12:11;;;;;;;4.53;2.28;;;;;;;20.50;nan;101516.78;6212186;23;20007;-89
2021/08/04 07:14:38;;;;;;;3.10;2.17;;;;;;;20.65;nan;101513.00;6212401;23;20004;-90
2021/08/04 07:17:05;;;;;;;2.95;2.13;;;;;;;20.58;nan;101513.38;6212399;23;20078;-90
2021/08/04 07:19:30;;;;;;;3.55;1.92;;;;;;;20.47;nan;101522.81;6212175;23;20051;-89
2021/08/04 07:21:56;;;;;;;5.50;1.85;;;;;;;20.62;nan;101530.72;6237079;23;20487;-89
2021/08/04 07:24:22;;;;;;;3.67;2.40;;;;;;;20.69;nan;101520.28;6212578;23;20055;-90
2021/08/04 07:26:47;;;;;;;4.35;1.95;;;;;;;20.84;nan;101527.41;6213408;23;20031;-89
2021/08/04 07:29:13;;;;;;;3.78;2.30;;;;;;;21.00;nan;101527.91;6239277;23;20004;-89
2021/08/04 07:31:40;;;;;;;5.07;2.15;;;;;;;21.02;nan;101532.00;6213840;23;20416;-89
2021/08/04 07:34:06;;;;;;;2.88;1.80;;;;;;;21.10;nan;101534.00;6240947;22;20007;-90
2021/08/04 07:36:32;;;;;;;2.67;2.10;;;;;;;21.26;nan;101533.78;6239723;23;20019;-90
2021/08/04 07:39:01;;;;;;;7.70;2.53;;;;;;;21.32;nan;101533.38;6213777;23;20004;-90
2021/08/04 07:41:26;;;;;;;4.22;2.30;;;;;;;21.31;nan;101536.41;6238957;23;20004;-89
2021/08/04 07:43:52;;;;;;;4.00;2.30;;;;;;;21.48;nan;101530.34;6240838;22;20008;-90
2021/08/04 07:46:18;;;;;;;5.13;2.38;;;;;;;21.72;nan;101530.94;6239022;23;20107;-89
2021/08/04 07:48:45;;;;;;;3.45;1.85;;;;;;;21.76;nan;101539.34;6214617;23;20007;-89
2021/08/04 07:51:12;;;;;;;3.53;1.83;;;;;;;21.95;nan;101529.94;6240269;23;20190;-89
2021/08/04 07:53:38;;;;;;;5.97;2.58;;;;;;;22.02;nan;101533.03;6238166;22;20004;-90
2021/08/04 07:56:03;;;;;;;3.00;2.05;;;;;;;21.88;nan;101536.91;6214645;23;20008;-89
2021/08/04 07:58:29;;;;;;;2.70;1.98;;;;;;;21.95;nan;101540.03;6239854;23;20004;-90
2021/08/04 08:00:55;;;;;;;2.38;2.00;;;;;;;21.97;nan;101538.63;6214028;23;20243;-90
2021/08/04 08:03:20;;;;;;;3.65;2.03;;;;;;;21.98;nan;101544.88;6238208;23;20000;-89
2021/08/04 08:05:46;;;;;;;4.47;2.35;;;;;;;21.78;nan;101540.66;6240125;22;20000;-90
2021/08/04 08:08:12;;;;;;;6.30;2.08;;;;;;;21.86;nan;101539.13;6238902;23;20007;-90
2021/08/04 08:10:40;;;;;;;3.80;2.55;;;;;;;22.08;nan;101541.16;6237916;23;20257;-89
2021/08/04 08:13:06;;;;;;;3.72;2.15;;;;;;;22.20;nan;101538.69;6214086;23;20000;-90
2021/08/04 08:15:32;;;;;;;3.08;2.00;;;;;;;22.31;nan;101531.91;6238380;22;20011;-90
2021/08/04 08:18:07;;;;;;;6.10;2.20;;;;;;;22.42;nan;101532.47;6240836;23;20011;-89
2021/08/04 08:20:33;;;;;;;3.63;1.70;;;;;;;22.51;nan;101534.16;6214016;23;20344;-90
2021/08/04 08:22:58;;;;;;;2.72;2.08;;;;;;;22.74;nan;101539.63;6239326;23;20004;-90
2021/08/04 08:25:24;;;;;;;3.90;1.98;;;;;;;22.96;nan;101536.91;6238290;22;20087;-90
2021/08/04 08:27:49;;;;;;;2.47;1.80;;;;;;;23.13;nan;101539.75;6239548;23;20000;-90
2021/08/04 08:30:15;;;;;;;3.28;1.75;;;;;;;23.10;nan;101529.44;6239104;23;20019;-90
2021/08/04 08:32:50;;;;;;;4.05;1.67;;;;;;;23.13;nan;101531.53;6212934;23;19996;-90
2021/08/04 08:35:16;;;;;;;3.92;1.90;;;;;;;23.03;nan;101529.09;6213581;23;20008;-90
2021/08/04 08:37:43;;;;;;;2.25;1.58;;;;;;;23.11;nan;101525.59;6239048;23;20574;-89
2021/08/04 08:40:10;;;;;;;1.98;1.48;;;;;;;22.89;nan;101525.63;6214158;23;20004;-90
2021/08/04 08:42:41;;;;;;;2.70;1.33;;;;;;;22.98;nan;101522.94;6213693;23;20042;-89
2021/08/04 08:45:08;;;;;;;3.40;1.80;;;;;;;22.91;nan;101524.19;6213575;23;20490;-90
2021/08/04 08:47:34;;;;;;;4.07;1.60;;;;;;;22.85;nan;101524.63;6213065;23;20380;-89
2021/08/04 08:50:01;;;;;;;3.30;1.55;;;;;;;22.72;nan;101530.94;6212427;23;20011;-89
2021/08/04 08:52:27;;;;;;;1.85;1.42;;;;;;;22.92;nan;101528.53;6213239;23;20247;-89
2021/08/04 08:54:53;;;;;;;3.72;1.77;;;;;;;22.93;nan;101529.34;6214099;23;20000;-90
2021/08/04 08:57:18;;;;;;;3.05;1.80;;;;;;;23.08;nan;101528.13;6237927;23;20004;-90
2021/08/04 08:59:44;;;;;;;2.45;2.10;;;;;;;23.38;nan;101524.59;6214456;23;20000;-90
2021/08/04 09:02:09;;;;;;;5.35;1.80;;;;;;;23.52;nan;101521.75;6215448;23;20061;-90
2021/08/04 09:04:35;;;;;;;3.47;1.77;;;;;;;23.77;nan;101526.53;6217089;23;20004;-90
2021/08/04 09:07:01;;;;;;;3.58;2.17;;;;;;;23.80;nan;101514.13;6244116;23;20011;-90
2021/08/04 09:09:34;;;;;;;2.58;2.20;;;;;;;24.02;nan;101524.16;6216558;23;20083;-90
2021/08/04 09:12:56;;;;;;;3.75;2.28;;;;;;;24.18;nan;101527.22;6215279;23;20312;-89
2021/08/04 09:15:35;;;;;;;4.88;2.60;;;;;;;24.31;nan;101526.31;6177564;23;20425;-89
2021/08/04 09:18:08;;;;;;;4.90;2.83;;;;;;;24.07;nan;101524.03;6179436;23;20004;-89
2021/08/04 09:20:44;;;;;;;3.75;1.95;;;;;;;24.48;nan;101525.50;6224305;23;20614;-90
2021/08/04 09:23:14;;;;;;;8.63;2.50;;;;;;;24.10;nan;101524.19;6215634;23;20004;-89
2021/08/04 09:25:43;;;;;;;4.93;2.38;;;;;;;24.70;nan;101514.34;6240786;22;20447;-91
2021/08/04 09:28:08;;;;;;;2.60;2.05;;;;;;;25.11;nan;101513.00;6243324;23;20000;-90
2021/08/04 09:30:37;;;;;;;4.70;2.15;;;;;;;25.45;nan;101515.59;6215991;23;20321;-90
2021/08/04 09:33:25;;;;;;;3.03;2.10;;;;;;;25.65;nan;101515.97;6214792;23;20174;-90
2021/08/04 09:35:56;;;;;;;3.88;1.77;;;;;;;25.34;nan;101514.38;6241776;22;20509;-90
2021/08/04 09:38:24;;;;;;;5.43;2.10;;;;;;;25.14;nan;101509.63;6216664;23;20004;-90
2021/08/04 09:41:16;;;;;;;3.15;1.90;;;;;;;25.32;nan;101513.91;6215364;23;20027;-90
2021/08/04 09:43:48;;;;;;;4.47;2.30;;;;;;;25.67;nan;101510.97;6241221;22;20031;-90
2021/08/04 09:46:24;;;;;;;5.28;1.63;;;;;;;25.92;nan;101510.06;6241067;23;20391;-88
2021/08/04 09:48:50;;;;;;;2.67;1.80;;;;;;;25.84;nan;101511.69;6212747;23;20062;-90
2021/08/04 09:51:17;;;;;;;2.05;1.70;;;;;;;26.11;nan;101507.66;6241329;23;20348;-90
2021/08/04 09:54:06;;;;;;;2.38;1.40;;;;;;;25.89;nan;101503.28;6216066;22;20050;-90
2021/08/04 09:56:56;;;;;;;4.07;1.70;;;;;;;25.94;nan;101504.22;6216293;23;20000;-91
2021/08/04 09:59:23;;;;;;;3.08;1.63;;;;;;;25.81;nan;101498.63;6215467;23;20008;-90
2021/08/04 10:01:51;;;;;;;2.38;1.35;;;;;;;25.76;nan;101498.03;6215032;23;20012;-90
2021/08/04 10:04:18;;;;;;;3.40;1.90;;;;;;;25.87;nan;101504.75;6240678;22;20432;-89
2021/08/04 10:06:46;;;;;;;2.63;1.33;;;;;;;25.15;nan;101506.56;6214688;23;20097;-90
2021/08/04 10:09:16;;;;;;;1.70;1.48;;;;;;;25.56;nan;101497.63;6213416;23;20012;-89
2021/08/04 10:12:30;;;;;;;2.25;1.40;;;;;;;25.78;nan;101507.53;6215348;23;19996;-90
2021/08/04 10:14:36;;;;;;;3.95;1.77;;;;;;;25.98;nan;101505.97;6230669;22;20000;-91
2021/08/04 10:17:07;;;;;;;3.55;1.80;;;;;;;25.68;nan;101493.41;6243012;23;20027;-90
2021/08/04 10:19:33;;;;;;;3.60;1.40;;;;;;;26.06;nan;101491.38;6215286;23;20004;-90
2021/08/04 10:22:01;;;;;;;1.50;1.20;;;;;;;25.81;nan;101497.84;6240730;23;20015;-90
2021/08/04 10:24:28;;;;;;;2.72;1.63;;;;;;;25.98;nan;101494.16;6215735;23;20008;-89
2021/08/04 10:26:54;;;;;;;2.45;1.35;;;;;;;26.03;nan;101497.53;6215084;23;20008;-89
2021/08/04 10:29:23;;;;;;;1.95;1.30;;;;;;;25.38;nan;101498.06;6242254;23;20071;-90
2021/08/04 10:31:49;;;;;;;2.50;1.60;;;;;;;25.66;nan;101496.44;6215179;23;20007;-90
2021/08/04 10:34:15;;;;;;;2.75;1.65;;;;;;;25.72;nan;101497.09;6215720;23;20004;-90
2021/08/04 10:36:45;;;;;;;1.60;1.35;;;;;;;26.04;nan;101499.16;6240626;23;20066;-90
2021/08/04 10:39:14;;;;;;;9.57;1.90;;;;;;;26.35;nan;101498.75;6215790;23;20587;-90
2021/08/04 10:41:58;;;;;;;3.67;1.58;;;;;;;26.69;nan;101497.63;6214280;23;20082;-90
2021/08/04 10:44:27;;;;;;;2.95;1.70;;;;;;;26.15;nan;101497.59;6215451;23;20463;-89
2021/08/04 10:47:02;;;;;;;6.38;1.50;;;;;;;26.04;nan;101492.84;6213823;23;20019;-90
2021/08/04 10:49:32;;;;;;;1.70;1.38;;;;;;;25.96;nan;101491.75;6240178;23;20062;-90
2021/08/04 10:52:01;;;;;;;2.13;1.38;;;;;;;26.08;nan;101486.34;6214022;23;20109;-91
2021/08/04 10:54:30;;;;;;;2.13;1.40;;;;;;;26.06;nan;101482.34;6215945;23;20012;-90
2021/08/04 10:57:02;;;;;;;3.28;1.70;;;;;;;25.80;nan;101480.56;6214778;23;20069;-90
2021/08/04 10:59:30;;;;;;;2.35;1.27;;;;;;;25.69;nan;101478.56;6215009;23;20015;-89
2021/08/04 11:02:15;;;;;;;2.40;1.35;;;;;;;25.61;nan;101474.69;6240724;23;20467;-91
2021/08/04 11:04:43;;;;;;;3.97;1.75;;;;;;;25.42;nan;101475.13;6239396;22;20141;-88
2021/08/04 11:07:14;;;;;;;2.50;1.33;;;;;;;25.88;nan;101468.75;6216158;23;20020;-90
2021/08/04 11:09:50;;;;;;;1.60;1.45;;;;;;;26.74;nan;101469.91;6216757;23;20011;-90
2021/08/04 11:12:40;;;;;;;2.63;1.50;;;;;;;27.35;nan;101467.28;6217012;23;20087;-91
2021/08/04 11:15:24;;;;;;;2.42;1.75;;;;;;;27.32;nan;101462.47;6217967;23;20012;-90
2021/08/04 11:18:07;;;;;;;2.90;1.27;;;;;;;27.43;nan;101465.53;6242976;23;20000;-90
2021/08/04 11:20:39;;;;;;;3.42;1.55;;;;;;;27.75;nan;101461.06;6218233;23;20488;-90
2021/08/04 11:23:09;;;;;;;5.72;1.73;;;;;;;27.98;nan;101455.81;6216964;23;20004;-90
2021/08/04 11:25:41;;;;;;;7.25;1.67;;;;;;;28.03;nan;101457.56;6217647;23;20011;-90
2021/08/04 11:28:10;;;;;;;2.80;1.63;;;;;;;27.89;nan;101456.00;6217912;23;20062;-90
2021/08/04 11:30:37;;;;;;;3.95;1.50;;;;;;;28.22;nan;101457.72;6216871;23;20033;-88
2021/08/04 11:33:22;;;;;;;2.45;1.30;;;;;;;27.89;nan;101466.19;6216299;23;20012;-91
2021/08/04 11:36:19;;;;;;;5.13;1.80;;;;;;;27.64;nan;101459.91;6217166;23;20083;-89
2021/08/04 11:38:50;;;;;;;3.67;1.60;;;;;;;27.20;nan;101459.69;6242850;23;20077;-90
2021/08/04 11:41:24;;;;;;;4.22;1.95;;;;;;;27.76;nan;101468.16;6214600;23;20012;-89
2021/08/04 11:44:18;;;;;;;3.20;1.88;;;;;;;27.72;nan;101466.47;6216375;22;20004;-91
2021/08/04 11:46:47;;;;;;;4.35;1.67;;;;;;;27.30;nan;101466.72;6216451;23;20403;-91
2021/08/04 11:49:43;;;;;;;2.03;1.70;;;;;;;26.62;nan;101475.38;6215300;23;20082;-89